Saint-Felicien, Canada
Current Conditions -  °F | °C
As of 1:00 PM on Saturday 25 Oct 2014 (Local Time) from CYRJ Reporting Station
Broken Clouds Broken Clouds  
Wind Chill: 52°   Ceiling: 7000
Heat Index: 52°   Visibility: 25mi
Dew Point: 36°   Wind: 8mph
Humidity: 54%   Direction: 100°E
Pressure: 29.49"   Gusts: NA
Location:  48.66°N, 72.45°W
Report Text: CYRJ 251700Z 10007KT 070V130 25SM BKN070 11/02 A2949 RMK AC7 SLP991 DENSITY ALT 700FT
Loading
Personal Weather Stations






























Interactive Weather Map
Tropical Storm Tracking
New forecast layout! Learn more

10-Day Weather Forecast

Advertisements
Track Severe Weather on mobile